sensor_id;sensor_type;location;lat;lon;timestamp;P1;durP1;ratioP1;P2;durP2;ratioP2
1701;SDS011;848;48.354;10.064;2023-03-20T00:00:37;6.10;;;2.80;;
1701;SDS011;848;48.354;10.064;2023-03-20T00:03:08;6.80;;;3.03;;
1701;SDS011;848;48.354;10.064;2023-03-20T00:05:36;7.55;;;3.38;;
1701;SDS011;848;48.354;10.064;2023-03-20T00:08:03;6.95;;;3.05;;
1701;SDS011;848;48.354;10.064;2023-03-20T00:10:33;7.18;;;3.42;;
1701;SDS011;848;48.354;10.064;2023-03-20T00:13:03;8.07;;;3.00;;
1701;SDS011;848;48.354;10.064;2023-03-20T00:15:31;6.47;;;3.00;;
1701;SDS011;848;48.354;10.064;2023-03-20T00:18:01;6.57;;;2.55;;
1701;SDS011;848;48.354;10.064;2023-03-20T00:20:29;6.90;;;2.60;;
1701;SDS011;848;48.354;10.064;2023-03-20T00:22:56;6.97;;;2.72;;
1701;SDS011;848;48.354;10.064;2023-03-20T00:25:23;6.13;;;3.00;;
1701;SDS011;848;48.354;10.064;2023-03-20T00:27:52;7.07;;;2.95;;
1701;SDS011;848;48.354;10.064;2023-03-20T00:30:24;7.53;;;3.15;;
1701;SDS011;848;48.354;10.064;2023-03-20T00:32:54;6.78;;;2.90;;
1701;SDS011;848;48.354;10.064;2023-03-20T00:35:23;6.43;;;2.75;;
1701;SDS011;848;48.354;10.064;2023-03-20T00:37:52;6.72;;;2.78;;
1701;SDS011;848;48.354;10.064;2023-03-20T00:40:19;8.40;;;3.40;;
1701;SDS011;848;48.354;10.064;2023-03-20T00:42:48;6.80;;;2.70;;
1701;SDS011;848;48.354;10.064;2023-03-20T00:45:22;8.05;;;2.95;;
1701;SDS011;848;48.354;10.064;2023-03-20T00:47:49;5.93;;;2.33;;
1701;SDS011;848;48.354;10.064;2023-03-20T00:50:18;6.25;;;2.55;;
1701;SDS011;848;48.354;10.064;2023-03-20T00:52:47;7.28;;;3.35;;
1701;SDS011;848;48.354;10.064;2023-03-20T00:55:15;5.93;;;2.50;;
1701;SDS011;848;48.354;10.064;2023-03-20T00:57:44;6.70;;;3.20;;
1701;SDS011;848;48.354;10.064;2023-03-20T01:00:25;6.20;;;2.88;;
1701;SDS011;848;48.354;10.064;2023-03-20T01:03:09;6.85;;;3.35;;
1701;SDS011;848;48.354;10.064;2023-03-20T01:05:38;7.80;;;3.25;;
1701;SDS011;848;48.354;10.064;2023-03-20T01:08:09;7.05;;;2.53;;
1701;SDS011;848;48.354;10.064;2023-03-20T01:10:41;7.00;;;2.67;;
1701;SDS011;848;48.354;10.064;2023-03-20T01:13:19;6.80;;;3.00;;
1701;SDS011;848;48.354;10.064;2023-03-20T01:15:49;7.30;;;2.70;;
1701;SDS011;848;48.354;10.064;2023-03-20T01:18:17;5.35;;;2.28;;
1701;SDS011;848;48.354;10.064;2023-03-20T01:20:46;6.57;;;3.15;;
1701;SDS011;848;48.354;10.064;2023-03-20T01:23:13;7.68;;;3.50;;
1701;SDS011;848;48.354;10.064;2023-03-20T01:25:41;6.43;;;3.00;;
1701;SDS011;848;48.354;10.064;2023-03-20T01:28:12;6.57;;;3.25;;
1701;SDS011;848;48.354;10.064;2023-03-20T01:30:41;6.53;;;3.22;;
1701;SDS011;848;48.354;10.064;2023-03-20T01:33:13;5.95;;;2.80;;
1701;SDS011;848;48.354;10.064;2023-03-20T01:35:42;6.45;;;3.30;;
1701;SDS011;848;48.354;10.064;2023-03-20T01:38:13;7.25;;;2.90;;
1701;SDS011;848;48.354;10.064;2023-03-20T01:40:46;6.60;;;3.22;;
1701;SDS011;848;48.354;10.064;2023-03-20T01:43:19;5.80;;;2.80;;
1701;SDS011;848;48.354;10.064;2023-03-20T01:45:49;7.47;;;3.40;;
1701;SDS011;848;48.354;10.064;2023-03-20T01:48:24;6.70;;;3.33;;
1701;SDS011;848;48.354;10.064;2023-03-20T01:50:56;6.35;;;3.08;;
1701;SDS011;848;48.354;10.064;2023-03-20T01:53:24;7.45;;;3.67;;
1701;SDS011;848;48.354;10.064;2023-03-20T01:55:53;6.85;;;3.47;;
1701;SDS011;848;48.354;10.064;2023-03-20T01:58:25;6.35;;;2.90;;
1701;SDS011;848;48.354;10.064;2023-03-20T02:00:54;8.52;;;3.80;;
1701;SDS011;848;48.354;10.064;2023-03-20T02:03:21;7.68;;;3.38;;
1701;SDS011;848;48.354;10.064;2023-03-20T02:05:51;8.07;;;3.70;;
1701;SDS011;848;48.354;10.064;2023-03-20T02:08:21;6.15;;;3.53;;
1701;SDS011;848;48.354;10.064;2023-03-20T02:10:51;6.95;;;3.40;;
1701;SDS011;848;48.354;10.064;2023-03-20T02:13:18;7.90;;;3.30;;
1701;SDS011;848;48.354;10.064;2023-03-20T02:15:53;7.40;;;3.53;;
1701;SDS011;848;48.354;10.064;2023-03-20T02:18:21;9.07;;;3.78;;
1701;SDS011;848;48.354;10.064;2023-03-20T02:20:56;6.53;;;3.15;;
1701;SDS011;848;48.354;10.064;2023-03-20T02:26:56;7.30;;;3.47;;
1701;SDS011;848;48.354;10.064;2023-03-20T02:32:50;9.80;;;4.55;;
1701;SDS011;848;48.354;10.064;2023-03-20T02:38:56;6.65;;;3.83;;
1701;SDS011;848;48.354;10.064;2023-03-20T02:41:42;7.75;;;3.85;;
1701;SDS011;848;48.354;10.064;2023-03-20T02:44:18;13.52;;;3.95;;
1701;SDS011;848;48.354;10.064;2023-03-20T02:46:53;8.48;;;3.95;;
1701;SDS011;848;48.354;10.064;2023-03-20T02:49:30;7.57;;;4.18;;
1701;SDS011;848;48.354;10.064;2023-03-20T02:52:10;8.60;;;3.80;;
1701;SDS011;848;48.354;10.064;2023-03-20T02:54:47;7.53;;;4.47;;
1701;SDS011;848;48.354;10.064;2023-03-20T02:57:21;8.07;;;4.35;;
1701;SDS011;848;48.354;10.064;2023-03-20T02:59:59;8.73;;;4.63;;
1701;SDS011;848;48.354;10.064;2023-03-20T03:02:33;9.40;;;4.03;;
1701;SDS011;848;48.354;10.064;2023-03-20T03:05:04;8.02;;;4.75;;
1701;SDS011;848;48.354;10.064;2023-03-20T03:07:38;11.57;;;4.45;;
1701;SDS011;848;48.354;10.064;2023-03-20T03:10:13;8.80;;;4.50;;
1701;SDS011;848;48.354;10.064;2023-03-20T03:12:47;8.40;;;4.80;;
1701;SDS011;848;48.354;10.064;2023-03-20T03:15:18;9.90;;;5.88;;
1701;SDS011;848;48.354;10.064;2023-03-20T03:17:50;10.38;;;5.70;;
1701;SDS011;848;48.354;10.064;2023-03-20T03:20:19;9.38;;;4.95;;
1701;SDS011;848;48.354;10.064;2023-03-20T03:22:48;8.85;;;5.28;;
1701;SDS011;848;48.354;10.064;2023-03-20T03:25:22;9.73;;;5.28;;
1701;SDS011;848;48.354;10.064;2023-03-20T03:27:53;9.48;;;5.60;;
1701;SDS011;848;48.354;10.064;2023-03-20T03:30:26;10.40;;;5.88;;
1701;SDS011;848;48.354;10.064;2023-03-20T03:33:01;8.75;;;5.35;;
1701;SDS011;848;48.354;10.064;2023-03-20T03:35:37;11.35;;;5.30;;
1701;SDS011;848;48.354;10.064;2023-03-20T03:38:09;9.80;;;5.88;;
1701;SDS011;848;48.354;10.064;2023-03-20T03:40:49;9.73;;;5.47;;
1701;SDS011;848;48.354;10.064;2023-03-20T03:43:26;9.98;;;5.90;;
1701;SDS011;848;48.354;10.064;2023-03-20T03:45:57;9.50;;;6.30;;
1701;SDS011;848;48.354;10.064;2023-03-20T03:48:29;9.63;;;5.78;;
1701;SDS011;848;48.354;10.064;2023-03-20T03:51:00;13.43;;;7.50;;
1701;SDS011;848;48.354;10.064;2023-03-20T03:53:31;10.00;;;6.00;;
1701;SDS011;848;48.354;10.064;2023-03-20T03:56:05;10.57;;;5.82;;
1701;SDS011;848;48.354;10.064;2023-03-20T03:58:36;10.10;;;5.82;;
1701;SDS011;848;48.354;10.064;2023-03-20T04:01:05;12.07;;;6.15;;
1701;SDS011;848;48.354;10.064;2023-03-20T04:03:37;10.18;;;5.28;;
1701;SDS011;848;48.354;10.064;2023-03-20T04:06:05;12.48;;;5.72;;
1701;SDS011;848;48.354;10.064;2023-03-20T04:08:38;10.63;;;5.70;;
1701;SDS011;848;48.354;10.064;2023-03-20T04:11:07;14.20;;;6.68;;
1701;SDS011;848;48.354;10.064;2023-03-20T04:13:39;10.13;;;6.05;;
1701;SDS011;848;48.354;10.064;2023-03-20T04:16:07;9.25;;;5.28;;
1701;SDS011;848;48.354;10.064;2023-03-20T04:18:38;11.63;;;5.63;;
1701;SDS011;848;48.354;10.064;2023-03-20T04:21:05;9.57;;;5.85;;
1701;SDS011;848;48.354;10.064;2023-03-20T04:23:32;9.45;;;5.13;;
1701;SDS011;848;48.354;10.064;2023-03-20T04:25:59;8.60;;;5.05;;
1701;SDS011;848;48.354;10.064;2023-03-20T04:28:29;15.07;;;6.78;;
1701;SDS011;848;48.354;10.064;2023-03-20T04:30:56;11.20;;;6.32;;
1701;SDS011;848;48.354;10.064;2023-03-20T04:33:25;9.43;;;5.43;;
1701;SDS011;848;48.354;10.064;2023-03-20T04:35:52;13.02;;;6.05;;
1701;SDS011;848;48.354;10.064;2023-03-20T04:38:20;10.40;;;6.60;;
1701;SDS011;848;48.354;10.064;2023-03-20T04:40:48;9.27;;;5.53;;
1701;SDS011;848;48.354;10.064;2023-03-20T04:43:15;10.50;;;5.70;;
1701;SDS011;848;48.354;10.064;2023-03-20T04:45:43;9.27;;;5.72;;
1701;SDS011;848;48.354;10.064;2023-03-20T04:48:10;9.23;;;5.50;;
1701;SDS011;848;48.354;10.064;2023-03-20T04:50:37;9.18;;;4.65;;
1701;SDS011;848;48.354;10.064;2023-03-20T04:53:04;8.80;;;5.13;;
1701;SDS011;848;48.354;10.064;2023-03-20T04:55:31;8.90;;;4.40;;
1701;SDS011;848;48.354;10.064;2023-03-20T04:57:58;12.23;;;5.75;;
1701;SDS011;848;48.354;10.064;2023-03-20T05:00:25;9.68;;;5.93;;
1701;SDS011;848;48.354;10.064;2023-03-20T05:02:53;10.88;;;6.93;;
1701;SDS011;848;48.354;10.064;2023-03-20T05:05:20;10.25;;;5.80;;
1701;SDS011;848;48.354;10.064;2023-03-20T05:07:47;9.35;;;5.20;;
1701;SDS011;848;48.354;10.064;2023-03-20T05:10:15;10.20;;;5.78;;
1701;SDS011;848;48.354;10.064;2023-03-20T05:12:42;9.23;;;5.63;;
1701;SDS011;848;48.354;10.064;2023-03-20T05:15:10;8.82;;;4.82;;
1701;SDS011;848;48.354;10.064;2023-03-20T05:17:37;10.27;;;5.15;;
1701;SDS011;848;48.354;10.064;2023-03-20T05:20:06;10.80;;;5.90;;
1701;SDS011;848;48.354;10.064;2023-03-20T05:22:33;11.15;;;5.55;;
1701;SDS011;848;48.354;10.064;2023-03-20T05:25:01;11.60;;;5.45;;
1701;SDS011;848;48.354;10.064;2023-03-20T05:27:27;8.85;;;4.70;;
1701;SDS011;848;48.354;10.064;2023-03-20T05:29:54;16.85;;;7.90;;
1701;SDS011;848;48.354;10.064;2023-03-20T05:32:21;8.10;;;4.40;;
1701;SDS011;848;48.354;10.064;2023-03-20T05:34:48;11.10;;;4.88;;
1701;SDS011;848;48.354;10.064;2023-03-20T05:37:16;13.65;;;5.63;;
1701;SDS011;848;48.354;10.064;2023-03-20T05:39:43;16.95;;;8.63;;
1701;SDS011;848;48.354;10.064;2023-03-20T05:42:10;26.42;;;11.23;;
1701;SDS011;848;48.354;10.064;2023-03-20T05:44:37;14.45;;;8.15;;
1701;SDS011;848;48.354;10.064;2023-03-20T05:47:05;9.50;;;4.88;;
1701;SDS011;848;48.354;10.064;2023-03-20T05:49:32;18.80;;;9.05;;
1701;SDS011;848;48.354;10.064;2023-03-20T05:51:59;9.25;;;4.90;;
1701;SDS011;848;48.354;10.064;2023-03-20T05:54:27;9.43;;;4.68;;
1701;SDS011;848;48.354;10.064;2023-03-20T05:56:54;8.05;;;4.05;;
1701;SDS011;848;48.354;10.064;2023-03-20T05:59:21;7.78;;;4.43;;
1701;SDS011;848;48.354;10.064;2023-03-20T06:01:48;8.27;;;4.40;;
1701;SDS011;848;48.354;10.064;2023-03-20T06:04:15;8.70;;;4.40;;
1701;SDS011;848;48.354;10.064;2023-03-20T06:06:42;7.20;;;3.70;;
1701;SDS011;848;48.354;10.064;2023-03-20T06:09:09;7.88;;;3.80;;
1701;SDS011;848;48.354;10.064;2023-03-20T06:11:37;7.63;;;3.95;;
1701;SDS011;848;48.354;10.064;2023-03-20T06:14:04;8.43;;;4.32;;
1701;SDS011;848;48.354;10.064;2023-03-20T06:16:31;8.82;;;4.38;;
1701;SDS011;848;48.354;10.064;2023-03-20T06:18:58;7.80;;;3.95;;
1701;SDS011;848;48.354;10.064;2023-03-20T06:21:25;8.25;;;4.82;;
1701;SDS011;848;48.354;10.064;2023-03-20T06:23:52;8.55;;;5.40;;
1701;SDS011;848;48.354;10.064;2023-03-20T06:26:19;9.30;;;4.55;;
1701;SDS011;848;48.354;10.064;2023-03-20T06:28:47;9.57;;;4.68;;
1701;SDS011;848;48.354;10.064;2023-03-20T06:31:14;8.20;;;4.25;;
1701;SDS011;848;48.354;10.064;2023-03-20T06:33:41;8.57;;;4.97;;
1701;SDS011;848;48.354;10.064;2023-03-20T06:36:09;10.70;;;5.40;;
1701;SDS011;848;48.354;10.064;2023-03-20T06:38:36;12.45;;;5.05;;
1701;SDS011;848;48.354;10.064;2023-03-20T06:41:03;8.30;;;4.68;;
1701;SDS011;848;48.354;10.064;2023-03-20T06:43:30;10.18;;;5.55;;
1701;SDS011;848;48.354;10.064;2023-03-20T06:45:59;9.70;;;5.60;;
1701;SDS011;848;48.354;10.064;2023-03-20T06:48:26;9.30;;;5.68;;
1701;SDS011;848;48.354;10.064;2023-03-20T06:50:53;9.75;;;5.38;;
1701;SDS011;848;48.354;10.064;2023-03-20T06:53:20;10.00;;;5.70;;
1701;SDS011;848;48.354;10.064;2023-03-20T06:55:47;11.88;;;5.78;;
1701;SDS011;848;48.354;10.064;2023-03-20T06:58:15;8.38;;;4.68;;
1701;SDS011;848;48.354;10.064;2023-03-20T07:00:43;9.02;;;5.20;;
1701;SDS011;848;48.354;10.064;2023-03-20T07:03:12;10.45;;;5.82;;
1701;SDS011;848;48.354;10.064;2023-03-20T07:05:39;12.55;;;5.00;;
1701;SDS011;848;48.354;10.064;2023-03-20T07:08:07;10.02;;;4.78;;
1701;SDS011;848;48.354;10.064;2023-03-20T07:10:34;10.40;;;5.55;;
1701;SDS011;848;48.354;10.064;2023-03-20T07:13:01;9.50;;;4.60;;
1701;SDS011;848;48.354;10.064;2023-03-20T07:15:28;9.88;;;5.10;;
1701;SDS011;848;48.354;10.064;2023-03-20T07:17:56;8.75;;;4.88;;
1701;SDS011;848;48.354;10.064;2023-03-20T07:20:24;9.25;;;4.65;;
1701;SDS011;848;48.354;10.064;2023-03-20T07:22:51;15.50;;;4.68;;
1701;SDS011;848;48.354;10.064;2023-03-20T07:25:19;10.13;;;4.15;;
1701;SDS011;848;48.354;10.064;2023-03-20T07:27:49;8.40;;;4.18;;
1701;SDS011;848;48.354;10.064;2023-03-20T07:30:16;9.50;;;4.03;;
1701;SDS011;848;48.354;10.064;2023-03-20T07:32:43;11.30;;;4.30;;
1701;SDS011;848;48.354;10.064;2023-03-20T07:35:11;7.80;;;3.20;;
1701;SDS011;848;48.354;10.064;2023-03-20T07:37:39;8.00;;;3.35;;
1701;SDS011;848;48.354;10.064;2023-03-20T07:40:07;6.80;;;3.20;;
1701;SDS011;848;48.354;10.064;2023-03-20T07:42:35;9.95;;;3.22;;
1701;SDS011;848;48.354;10.064;2023-03-20T07:45:02;6.45;;;2.50;;
1701;SDS011;848;48.354;10.064;2023-03-20T07:47:29;7.10;;;3.30;;
1701;SDS011;848;48.354;10.064;2023-03-20T07:49:56;7.00;;;2.95;;
1701;SDS011;848;48.354;10.064;2023-03-20T07:52:23;8.50;;;2.83;;
1701;SDS011;848;48.354;10.064;2023-03-20T07:54:52;8.23;;;3.50;;
1701;SDS011;848;48.354;10.064;2023-03-20T07:57:19;7.20;;;3.08;;
1701;SDS011;848;48.354;10.064;2023-03-20T07:59:45;8.93;;;3.10;;
1701;SDS011;848;48.354;10.064;2023-03-20T08:02:12;7.55;;;3.22;;
1701;SDS011;848;48.354;10.064;2023-03-20T08:04:40;9.13;;;2.80;;
1701;SDS011;848;48.354;10.064;2023-03-20T08:07:07;11.10;;;3.53;;
1701;SDS011;848;48.354;10.064;2023-03-20T08:09:35;7.72;;;3.38;;
1701;SDS011;848;48.354;10.064;2023-03-20T08:12:04;6.45;;;2.13;;
1701;SDS011;848;48.354;10.064;2023-03-20T08:14:31;5.68;;;1.90;;
1701;SDS011;848;48.354;10.064;2023-03-20T08:16:59;7.63;;;2.03;;
1701;SDS011;848;48.354;10.064;2023-03-20T08:19:26;6.07;;;2.05;;
1701;SDS011;848;48.354;10.064;2023-03-20T08:21:53;5.70;;;2.03;;
1701;SDS011;848;48.354;10.064;2023-03-20T08:24:20;5.25;;;1.55;;
1701;SDS011;848;48.354;10.064;2023-03-20T08:26:47;6.20;;;1.50;;
1701;SDS011;848;48.354;10.064;2023-03-20T08:29:15;6.30;;;2.15;;
1701;SDS011;848;48.354;10.064;2023-03-20T08:31:43;6.13;;;1.83;;
1701;SDS011;848;48.354;10.064;2023-03-20T08:34:10;5.80;;;1.75;;
1701;SDS011;848;48.354;10.064;2023-03-20T08:36:37;6.65;;;1.65;;
1701;SDS011;848;48.354;10.064;2023-03-20T08:39:07;5.93;;;1.85;;
1701;SDS011;848;48.354;10.064;2023-03-20T08:41:35;6.00;;;2.03;;
1701;SDS011;848;48.354;10.064;2023-03-20T08:44:04;5.68;;;1.92;;
1701;SDS011;848;48.354;10.064;2023-03-20T08:46:32;6.28;;;2.25;;
1701;SDS011;848;48.354;10.064;2023-03-20T08:48:59;5.50;;;1.80;;
1701;SDS011;848;48.354;10.064;2023-03-20T08:51:26;8.48;;;2.75;;
1701;SDS011;848;48.354;10.064;2023-03-20T08:53:53;6.13;;;1.85;;
1701;SDS011;848;48.354;10.064;2023-03-20T08:56:20;6.40;;;2.40;;
1701;SDS011;848;48.354;10.064;2023-03-20T08:58:49;5.90;;;2.28;;
1701;SDS011;848;48.354;10.064;2023-03-20T09:01:17;8.70;;;2.00;;
1701;SDS011;848;48.354;10.064;2023-03-20T09:03:46;6.78;;;2.05;;
1701;SDS011;848;48.354;10.064;2023-03-20T09:06:13;6.70;;;2.25;;
1701;SDS011;848;48.354;10.064;2023-03-20T09:08:40;9.23;;;3.70;;
1701;SDS011;848;48.354;10.064;2023-03-20T09:11:07;6.80;;;2.30;;
1701;SDS011;848;48.354;10.064;2023-03-20T09:13:34;5.93;;;2.20;;
1701;SDS011;848;48.354;10.064;2023-03-20T09:16:01;7.00;;;2.70;;
1701;SDS011;848;48.354;10.064;2023-03-20T09:18:28;7.47;;;3.00;;
1701;SDS011;848;48.354;10.064;2023-03-20T09:20:56;10.10;;;3.80;;
1701;SDS011;848;48.354;10.064;2023-03-20T09:23:23;6.63;;;2.50;;
1701;SDS011;848;48.354;10.064;2023-03-20T09:25:50;6.55;;;2.13;;
1701;SDS011;848;48.354;10.064;2023-03-20T09:28:17;6.78;;;2.85;;
1701;SDS011;848;48.354;10.064;2023-03-20T09:30:44;7.22;;;1.80;;
1701;SDS011;848;48.354;10.064;2023-03-20T09:33:11;5.97;;;1.95;;
1701;SDS011;848;48.354;10.064;2023-03-20T09:35:39;6.32;;;2.88;;
1701;SDS011;848;48.354;10.064;2023-03-20T09:38:08;8.05;;;1.95;;
1701;SDS011;848;48.354;10.064;2023-03-20T09:40:37;5.25;;;1.50;;
1701;SDS011;848;48.354;10.064;2023-03-20T09:43:18;5.60;;;1.65;;
1701;SDS011;848;48.354;10.064;2023-03-20T09:45:57;5.90;;;1.95;;
1701;SDS011;848;48.354;10.064;2023-03-20T09:48:32;26.33;;;16.15;;
1701;SDS011;848;48.354;10.064;2023-03-20T09:51:03;12.30;;;7.85;;
1701;SDS011;848;48.354;10.064;2023-03-20T09:53:40;5.88;;;1.80;;
1701;SDS011;848;48.354;10.064;2023-03-20T09:56:12;5.53;;;1.80;;
1701;SDS011;848;48.354;10.064;2023-03-20T09:58:43;9.20;;;5.35;;
1701;SDS011;848;48.354;10.064;2023-03-20T10:01:15;6.22;;;1.83;;
1701;SDS011;848;48.354;10.064;2023-03-20T10:03:47;6.20;;;2.13;;
1701;SDS011;848;48.354;10.064;2023-03-20T10:06:17;5.55;;;1.85;;
1701;SDS011;848;48.354;10.064;2023-03-20T10:08:46;7.03;;;2.00;;
1701;SDS011;848;48.354;10.064;2023-03-20T10:11:27;5.60;;;1.98;;
1701;SDS011;848;48.354;10.064;2023-03-20T10:14:06;5.70;;;1.75;;
1701;SDS011;848;48.354;10.064;2023-03-20T10:16:49;6.28;;;2.25;;
1701;SDS011;848;48.354;10.064;2023-03-20T10:19:26;8.15;;;2.22;;
1701;SDS011;848;48.354;10.064;2023-03-20T10:21:56;5.88;;;2.10;;
1701;SDS011;848;48.354;10.064;2023-03-20T10:24:28;7.00;;;2.28;;
1701;SDS011;848;48.354;10.064;2023-03-20T10:27:02;6.38;;;1.90;;
1701;SDS011;848;48.354;10.064;2023-03-20T10:29:32;6.25;;;1.80;;
1701;SDS011;848;48.354;10.064;2023-03-20T10:32:11;6.35;;;2.53;;
1701;SDS011;848;48.354;10.064;2023-03-20T10:34:47;5.93;;;2.20;;
1701;SDS011;848;48.354;10.064;2023-03-20T10:37:28;7.68;;;1.98;;
1701;SDS011;848;48.354;10.064;2023-03-20T10:40:12;6.25;;;2.42;;
1701;SDS011;848;48.354;10.064;2023-03-20T10:42:54;6.80;;;1.60;;
1701;SDS011;848;48.354;10.064;2023-03-20T10:45:34;5.65;;;1.70;;
1701;SDS011;848;48.354;10.064;2023-03-20T10:48:08;5.30;;;1.17;;
1701;SDS011;848;48.354;10.064;2023-03-20T10:50:42;4.70;;;0.93;;
1701;SDS011;848;48.354;10.064;2023-03-20T10:53:17;4.60;;;0.80;;
1701;SDS011;848;48.354;10.064;2023-03-20T10:55:50;4.70;;;0.85;;
1701;SDS011;848;48.354;10.064;2023-03-20T10:58:20;5.38;;;1.30;;
1701;SDS011;848;48.354;10.064;2023-03-20T11:00:49;5.43;;;1.35;;
1701;SDS011;848;48.354;10.064;2023-03-20T11:03:20;5.18;;;1.70;;
1701;SDS011;848;48.354;10.064;2023-03-20T11:05:50;8.10;;;1.75;;
1701;SDS011;848;48.354;10.064;2023-03-20T11:08:21;5.30;;;1.40;;
1701;SDS011;848;48.354;10.064;2023-03-20T11:10:58;4.78;;;1.05;;
1701;SDS011;848;48.354;10.064;2023-03-20T11:13:28;4.90;;;1.15;;
1701;SDS011;848;48.354;10.064;2023-03-20T11:16:06;6.38;;;1.10;;
1701;SDS011;848;48.354;10.064;2023-03-20T11:18:42;5.20;;;1.10;;
1701;SDS011;848;48.354;10.064;2023-03-20T11:21:13;4.55;;;0.88;;
1701;SDS011;848;48.354;10.064;2023-03-20T11:23:43;4.78;;;0.90;;
1701;SDS011;848;48.354;10.064;2023-03-20T11:26:12;4.88;;;1.00;;
1701;SDS011;848;48.354;10.064;2023-03-20T11:28:41;4.82;;;1.10;;
1701;SDS011;848;48.354;10.064;2023-03-20T11:31:15;5.35;;;0.85;;
1701;SDS011;848;48.354;10.064;2023-03-20T11:33:45;6.00;;;1.83;;
1701;SDS011;848;48.354;10.064;2023-03-20T11:36:21;4.95;;;1.30;;
1701;SDS011;848;48.354;10.064;2023-03-20T11:38:50;6.03;;;0.90;;
1701;SDS011;848;48.354;10.064;2023-03-20T11:41:21;5.43;;;1.05;;
1701;SDS011;848;48.354;10.064;2023-03-20T11:43:50;4.60;;;0.80;;
1701;SDS011;848;48.354;10.064;2023-03-20T11:46:19;5.57;;;0.80;;
1701;SDS011;848;48.354;10.064;2023-03-20T11:49:03;4.68;;;1.08;;
1701;SDS011;848;48.354;10.064;2023-03-20T11:51:32;5.05;;;0.85;;
1701;SDS011;848;48.354;10.064;2023-03-20T11:54:01;5.97;;;0.80;;
1701;SDS011;848;48.354;10.064;2023-03-20T11:56:32;5.03;;;0.93;;
1701;SDS011;848;48.354;10.064;2023-03-20T11:59:01;4.80;;;1.05;;
1701;SDS011;848;48.354;10.064;2023-03-20T12:01:36;4.40;;;0.60;;
1701;SDS011;848;48.354;10.064;2023-03-20T12:04:10;4.70;;;1.05;;
1701;SDS011;848;48.354;10.064;2023-03-20T12:06:41;4.90;;;0.80;;
1701;SDS011;848;48.354;10.064;2023-03-20T12:09:14;4.50;;;0.82;;
1701;SDS011;848;48.354;10.064;2023-03-20T12:11:53;4.88;;;1.00;;
1701;SDS011;848;48.354;10.064;2023-03-20T12:14:25;5.25;;;1.15;;
1701;SDS011;848;48.354;10.064;2023-03-20T12:17:01;4.40;;;0.70;;
1701;SDS011;848;48.354;10.064;2023-03-20T12:19:44;5.00;;;1.30;;
1701;SDS011;848;48.354;10.064;2023-03-20T12:22:16;4.45;;;0.82;;
1701;SDS011;848;48.354;10.064;2023-03-20T12:24:48;4.50;;;0.93;;
1701;SDS011;848;48.354;10.064;2023-03-20T12:27:22;5.13;;;0.80;;
1701;SDS011;848;48.354;10.064;2023-03-20T12:29:54;4.95;;;1.10;;
1701;SDS011;848;48.354;10.064;2023-03-20T12:32:26;4.70;;;1.13;;
1701;SDS011;848;48.354;10.064;2023-03-20T12:35:01;4.65;;;1.15;;
1701;SDS011;848;48.354;10.064;2023-03-20T12:37:35;5.43;;;1.35;;
1701;SDS011;848;48.354;10.064;2023-03-20T12:40:02;5.18;;;1.10;;
1701;SDS011;848;48.354;10.064;2023-03-20T12:42:35;4.80;;;1.20;;
1701;SDS011;848;48.354;10.064;2023-03-20T12:45:08;4.90;;;1.13;;
1701;SDS011;848;48.354;10.064;2023-03-20T12:47:41;4.85;;;1.20;;
1701;SDS011;848;48.354;10.064;2023-03-20T12:50:22;6.10;;;1.42;;
1701;SDS011;848;48.354;10.064;2023-03-20T12:52:59;4.70;;;0.70;;
1701;SDS011;848;48.354;10.064;2023-03-20T12:55:41;7.40;;;1.00;;
1701;SDS011;848;48.354;10.064;2023-03-20T12:58:24;5.30;;;1.15;;
1701;SDS011;848;48.354;10.064;2023-03-20T13:01:01;5.05;;;1.23;;
1701;SDS011;848;48.354;10.064;2023-03-20T13:03:33;4.70;;;0.80;;
1701;SDS011;848;48.354;10.064;2023-03-20T13:06:13;4.60;;;0.80;;
1701;SDS011;848;48.354;10.064;2023-03-20T13:11:38;4.90;;;0.93;;
1701;SDS011;848;48.354;10.064;2023-03-20T13:14:14;4.70;;;0.90;;
1701;SDS011;848;48.354;10.064;2023-03-20T13:16:51;4.75;;;1.50;;
1701;SDS011;848;48.354;10.064;2023-03-20T13:19:25;5.47;;;1.13;;
1701;SDS011;848;48.354;10.064;2023-03-20T13:21:57;6.28;;;1.23;;
1701;SDS011;848;48.354;10.064;2023-03-20T13:24:32;5.35;;;1.02;;
1701;SDS011;848;48.354;10.064;2023-03-20T13:27:06;4.80;;;1.10;;
1701;SDS011;848;48.354;10.064;2023-03-20T13:29:47;5.03;;;1.30;;
1701;SDS011;848;48.354;10.064;2023-03-20T13:32:24;12.82;;;6.35;;
1701;SDS011;848;48.354;10.064;2023-03-20T13:35:14;5.03;;;1.48;;
1701;SDS011;848;48.354;10.064;2023-03-20T13:37:48;8.30;;;2.47;;
1701;SDS011;848;48.354;10.064;2023-03-20T13:40:20;4.90;;;1.50;;
1701;SDS011;848;48.354;10.064;2023-03-20T13:42:50;5.15;;;1.55;;
1701;SDS011;848;48.354;10.064;2023-03-20T13:45:32;6.45;;;1.85;;
1701;SDS011;848;48.354;10.064;2023-03-20T13:48:02;5.07;;;1.35;;
1701;SDS011;848;48.354;10.064;2023-03-20T13:50:41;5.00;;;1.33;;
1701;SDS011;848;48.354;10.064;2023-03-20T13:53:18;4.68;;;1.05;;
1701;SDS011;848;48.354;10.064;2023-03-20T13:55:54;4.80;;;1.10;;
1701;SDS011;848;48.354;10.064;2023-03-20T14:01:24;9.43;;;1.30;;
1701;SDS011;848;48.354;10.064;2023-03-20T14:04:00;6.25;;;1.33;;
1701;SDS011;848;48.354;10.064;2023-03-20T14:06:47;4.45;;;0.95;;
1701;SDS011;848;48.354;10.064;2023-03-20T14:09:26;5.43;;;1.42;;
1701;SDS011;848;48.354;10.064;2023-03-20T14:11:59;5.10;;;1.40;;
1701;SDS011;848;48.354;10.064;2023-03-20T14:14:29;5.10;;;1.00;;
1701;SDS011;848;48.354;10.064;2023-03-20T14:17:02;4.70;;;1.05;;
1701;SDS011;848;48.354;10.064;2023-03-20T14:19:38;5.63;;;1.17;;
1701;SDS011;848;48.354;10.064;2023-03-20T14:22:05;5.20;;;1.30;;
1701;SDS011;848;48.354;10.064;2023-03-20T14:24:39;5.22;;;1.50;;
1701;SDS011;848;48.354;10.064;2023-03-20T14:27:19;5.05;;;1.30;;
1701;SDS011;848;48.354;10.064;2023-03-20T14:29:47;5.68;;;1.70;;
1701;SDS011;848;48.354;10.064;2023-03-20T14:32:23;5.20;;;1.60;;
1701;SDS011;848;48.354;10.064;2023-03-20T14:35:17;4.80;;;1.17;;
1701;SDS011;848;48.354;10.064;2023-03-20T14:38:03;4.80;;;1.20;;
1701;SDS011;848;48.354;10.064;2023-03-20T14:40:51;4.90;;;1.08;;
1701;SDS011;848;48.354;10.064;2023-03-20T14:43:31;5.30;;;1.35;;
1701;SDS011;848;48.354;10.064;2023-03-20T14:46:07;4.90;;;1.20;;
1701;SDS011;848;48.354;10.064;2023-03-20T14:48:49;5.30;;;1.30;;
1701;SDS011;848;48.354;10.064;2023-03-20T14:51:23;4.90;;;1.20;;
1701;SDS011;848;48.354;10.064;2023-03-20T14:53:57;6.38;;;1.33;;
1701;SDS011;848;48.354;10.064;2023-03-20T14:56:44;5.35;;;1.20;;
1701;SDS011;848;48.354;10.064;2023-03-20T14:59:11;6.70;;;1.35;;
1701;SDS011;848;48.354;10.064;2023-03-20T15:01:47;5.40;;;1.20;;
1701;SDS011;848;48.354;10.064;2023-03-20T15:04:22;5.72;;;0.93;;
1701;SDS011;848;48.354;10.064;2023-03-20T15:06:55;4.70;;;1.20;;
1701;SDS011;848;48.354;10.064;2023-03-20T15:09:25;5.57;;;1.25;;
1701;SDS011;848;48.354;10.064;2023-03-20T15:11:54;4.90;;;1.13;;
1701;SDS011;848;48.354;10.064;2023-03-20T15:14:28;5.38;;;1.40;;
1701;SDS011;848;48.354;10.064;2023-03-20T15:17:14;5.05;;;0.98;;
1701;SDS011;848;48.354;10.064;2023-03-20T15:19:44;4.72;;;1.10;;
1701;SDS011;848;48.354;10.064;2023-03-20T15:22:13;4.85;;;1.30;;
1701;SDS011;848;48.354;10.064;2023-03-20T15:24:42;9.38;;;1.20;;
1701;SDS011;848;48.354;10.064;2023-03-20T15:27:17;5.45;;;1.48;;
1701;SDS011;848;48.354;10.064;2023-03-20T15:29:45;4.90;;;1.13;;
1701;SDS011;848;48.354;10.064;2023-03-20T15:32:15;5.60;;;1.17;;
1701;SDS011;848;48.354;10.064;2023-03-20T15:34:45;5.60;;;1.20;;
1701;SDS011;848;48.354;10.064;2023-03-20T15:37:14;5.00;;;1.30;;
1701;SDS011;848;48.354;10.064;2023-03-20T15:39:43;4.97;;;0.85;;
1701;SDS011;848;48.354;10.064;2023-03-20T15:42:12;5.28;;;1.05;;
1701;SDS011;848;48.354;10.064;2023-03-20T15:44:42;5.68;;;1.40;;
1701;SDS011;848;48.354;10.064;2023-03-20T15:47:12;4.40;;;0.82;;
1701;SDS011;848;48.354;10.064;2023-03-20T15:49:47;4.60;;;1.00;;
1701;SDS011;848;48.354;10.064;2023-03-20T15:52:18;5.10;;;1.33;;